Time;durP1;ratioP1;P1;durP2;ratioP2;P2;SDS_P1;SDS_P2;PMS_P1;PMS_P2;Temp;Humidity;BMP_temperature;BMP_pressure;BME280_temperature;BME280_humidity;BME280_pressure;Samples;Min_cycle;Max_cycle;Signal;HPM_P1;HPM_P2
2023/02/18 00:02:06;;;;;;;;;;;;;;;27.48;20.73;101270.44;5075285;28;1191;-20
2023/02/18 00:04:32;;;;;;;;;;;;;;;27.87;20.00;101271.56;5074669;28;1086;-21
2023/02/18 00:06:58;;;;;;;;;;;;;;;28.20;19.90;101270.53;5067559;28;2176;-22
2023/02/18 00:09:23;;;;;;;;;;;;;;;28.47;19.46;101266.53;5071375;28;1151;-20
2023/02/18 00:11:48;;;;;;;;;;;;;;;27.89;20.38;101264.13;5075221;28;1055;-21
2023/02/18 00:14:14;;;;;;;;;;;;;;;27.84;20.09;101251.09;5074354;28;1035;-23
2023/02/18 00:16:39;;;;;;;;;;;;;;;27.56;20.11;101261.50;5075409;28;992;-21
2023/02/18 00:19:05;;;;;;;;;;;;;;;27.23;20.90;101251.59;5074957;28;1922;-21
2023/02/18 00:21:33;;;;;;;;;;;;;;;27.87;20.06;101249.91;5075399;28;1166;-23
2023/02/18 00:23:59;;;;;;;;;;;;;;;27.53;20.41;101253.75;5076451;28;1098;-22
2023/02/18 00:26:24;;;;;;;;;;;;;;;27.30;20.46;101240.94;5078649;28;1205;-22
2023/02/18 00:28:53;;;;;;;;;;;;;;;27.13;21.10;101240.97;5076052;28;1424;-25
2023/02/18 00:31:22;;;;;;;;;;;;;;;26.94;21.30;101228.66;5078403;28;1071;-23
2023/02/18 00:33:47;;;;;;;;;;;;;;;27.11;21.09;101232.22;5078014;28;1062;-21
2023/02/18 00:36:13;;;;;;;;;;;;;;;27.60;20.74;101223.13;5078083;28;2113;-22
2023/02/18 00:38:39;;;;;;;;;;;;;;;27.74;20.24;101216.16;5078091;28;1971;-21
2023/02/18 00:41:04;;;;;;;;;;;;;;;27.49;20.42;101218.94;5060127;28;1156;-22
2023/02/18 00:43:29;;;;;;;;;;;;;;;27.17;20.74;101214.47;5077984;28;1091;-21
2023/02/18 00:45:55;;;;;;;;;;;;;;;27.59;20.69;101212.50;5078209;28;1012;-20
2023/02/18 00:48:20;;;;;;;;;;;;;;;27.57;20.33;101209.97;5078460;28;984;-21
2023/02/18 00:50:45;;;;;;;;;;;;;;;27.90;19.90;101200.91;5078292;28;1167;-22
2023/02/18 00:53:11;;;;;;;;;;;;;;;28.35;19.81;101201.16;5078319;28;1195;-20
2023/02/18 00:55:39;;;;;;;;;;;;;;;27.64;20.44;101188.50;5059285;28;1032;-21
2023/02/18 00:58:05;;;;;;;;;;;;;;;27.40;20.22;101201.09;5078015;28;1910;-22
2023/02/18 01:00:30;;;;;;;;;;;;;;;27.09;20.90;101191.03;5077844;28;1106;-21
2023/02/18 01:02:55;;;;;;;;;;;;;;;27.55;20.79;101189.53;5078025;28;1241;-21
2023/02/18 01:05:21;;;;;;;;;;;;;;;28.20;19.57;101187.53;5077488;28;1796;-21
2023/02/18 01:07:46;;;;;;;;;;;;;;;28.25;19.62;101181.56;5076844;28;1090;-21
2023/02/18 01:10:11;;;;;;;;;;;;;;;27.94;19.70;101175.19;5077791;28;1067;-20
2023/02/18 01:12:37;;;;;;;;;;;;;;;27.74;20.20;101178.31;5077876;28;1108;-21
2023/02/18 01:15:03;;;;;;;;;;;;;;;27.50;20.46;101177.41;5077914;28;996;-22
2023/02/18 01:17:28;;;;;;;;;;;;;;;27.23;20.49;101176.81;5077993;28;1965;-21
2023/02/18 01:19:54;;;;;;;;;;;;;;;27.87;20.23;101169.66;5077432;28;1027;-23
2023/02/18 01:22:19;;;;;;;;;;;;;;;28.30;19.76;101162.94;5077284;28;1178;-22
2023/02/18 01:24:44;;;;;;;;;;;;;;;28.48;19.27;101161.81;5077175;28;1055;-21
2023/02/18 01:27:09;;;;;;;;;;;;;;;27.79;19.91;101166.16;5078047;28;1076;-22
2023/02/18 01:29:35;;;;;;;;;;;;;;;27.90;19.96;101167.59;5077408;28;1058;-23
2023/02/18 01:32:00;;;;;;;;;;;;;;;27.78;19.61;101164.47;5058789;28;1245;-22
2023/02/18 01:34:25;;;;;;;;;;;;;;;27.34;20.51;101167.50;5077165;28;1116;-23
2023/02/18 01:36:50;;;;;;;;;;;;;;;27.72;20.49;101163.31;5076698;28;2500;-21
2023/02/18 01:39:16;;;;;;;;;;;;;;;28.27;19.72;101160.59;5076859;28;1909;-22
2023/02/18 01:41:41;;;;;;;;;;;;;;;28.69;19.29;101161.13;5076887;28;1059;-20
2023/02/18 01:44:09;;;;;;;;;;;;;;;28.26;19.29;101163.50;5077110;28;884;-23
2023/02/18 01:46:35;;;;;;;;;;;;;;;27.47;20.02;101169.66;5076431;28;1190;-21
2023/02/18 01:49:00;;;;;;;;;;;;;;;27.09;20.98;101166.75;5077323;28;1142;-21
2023/02/18 01:51:36;;;;;;;;;;;;;;;27.31;20.86;101167.03;5050452;28;1115;-21
2023/02/18 01:54:01;;;;;;;;;;;;;;;27.82;20.28;101158.53;5038806;28;1029;-22
2023/02/18 01:56:33;;;;;;;;;;;;;;;28.09;20.00;101155.50;5056364;28;1072;-24
2023/02/18 01:58:59;;;;;;;;;;;;;;;27.98;20.00;101154.88;5039520;28;1914;-21
2023/02/18 02:01:25;;;;;;;;;;;;;;;27.70;20.39;101149.13;5057059;28;1016;-22
2023/02/18 02:03:50;;;;;;;;;;;;;;;27.58;20.29;101140.53;5038661;28;1052;-21
2023/02/18 02:06:16;;;;;;;;;;;;;;;27.39;20.54;101124.59;5056478;28;2516;-22
2023/02/18 02:08:42;;;;;;;;;;;;;;;27.73;20.54;101119.91;5056148;28;1042;-21
2023/02/18 02:11:11;;;;;;;;;;;;;;;28.19;19.57;101120.09;5025783;28;1417;-21
2023/02/18 02:13:53;;;;;;;;;;;;;;;28.56;19.46;101121.13;5039056;28;1146;-21
2023/02/18 02:16:22;;;;;;;;;;;;;;;28.68;19.30;101126.94;5056672;28;1112;-22
2023/02/18 02:18:48;;;;;;;;;;;;;;;27.66;20.28;101128.88;5038738;28;1969;-21
2023/02/18 02:21:19;;;;;;;;;;;;;;;27.74;20.04;101135.06;5056367;28;923;-21
2023/02/18 02:23:44;;;;;;;;;;;;;;;27.48;19.95;101138.91;5056484;28;1093;-20
2023/02/18 02:26:13;;;;;;;;;;;;;;;27.61;20.73;101132.94;5056463;28;1090;-21
2023/02/18 02:28:38;;;;;;;;;;;;;;;28.04;19.74;101130.84;5056207;28;1186;-21
2023/02/18 02:31:18;;;;;;;;;;;;;;;28.36;19.53;101135.19;5056235;28;1146;-22
2023/02/18 02:34:01;;;;;;;;;;;;;;;28.43;19.20;101127.19;5055294;28;1076;-21
2023/02/18 02:36:26;;;;;;;;;;;;;;;27.46;20.58;101129.31;5038382;28;2586;-21
2023/02/18 02:38:55;;;;;;;;;;;;;;;27.22;20.71;101121.13;5055839;28;1902;-23
2023/02/18 02:41:25;;;;;;;;;;;;;;;27.63;20.40;101127.34;5055711;28;1059;-21
2023/02/18 02:44:01;;;;;;;;;;;;;;;27.67;20.27;101133.25;5038128;28;1168;-23
2023/02/18 02:46:30;;;;;;;;;;;;;;;27.92;20.15;101133.97;5037208;28;1136;-21
2023/02/18 02:49:02;;;;;;;;;;;;;;;27.76;20.02;101126.78;5038879;28;1087;-21
2023/02/18 02:51:28;;;;;;;;;;;;;;;27.57;20.28;101123.50;5064618;28;1160;-21
2023/02/18 02:53:54;;;;;;;;;;;;;;;27.90;20.14;101121.63;5076309;28;1020;-21
2023/02/18 02:56:20;;;;;;;;;;;;;;;27.43;20.38;101113.44;5075565;28;1106;-21
2023/02/18 02:58:49;;;;;;;;;;;;;;;27.39;20.63;101115.66;5075491;28;1971;-21
2023/02/18 03:01:28;;;;;;;;;;;;;;;28.19;19.68;101106.56;5057505;28;1119;-21
2023/02/18 03:04:12;;;;;;;;;;;;;;;28.56;19.49;101113.03;5076047;28;1111;-20
2023/02/18 03:06:40;;;;;;;;;;;;;;;28.75;19.22;101113.50;5068956;28;2526;-21
2023/02/18 03:09:05;;;;;;;;;;;;;;;27.99;20.08;101104.34;5075483;28;1167;-21
2023/02/18 03:11:32;;;;;;;;;;;;;;;27.55;20.34;101100.38;5065406;28;1015;-21
2023/02/18 03:14:03;;;;;;;;;;;;;;;27.34;20.73;101099.13;5055124;28;1130;-22
2023/02/18 03:16:41;;;;;;;;;;;;;;;27.59;20.34;101096.31;5075629;28;1124;-21
2023/02/18 03:19:08;;;;;;;;;;;;;;;27.97;19.81;101099.13;5076064;28;1961;-22
2023/02/18 03:21:44;;;;;;;;;;;;;;;28.38;19.46;101099.81;5057633;28;947;-22
2023/02/18 03:24:13;;;;;;;;;;;;;;;27.72;20.03;101095.75;5063672;28;1112;-21
2023/02/18 03:26:40;;;;;;;;;;;;;;;27.45;20.41;101090.63;5057920;28;1079;-22
2023/02/18 03:29:06;;;;;;;;;;;;;;;27.26;20.62;101100.00;5050169;28;1052;-21
2023/02/18 03:31:31;;;;;;;;;;;;;;;27.69;20.34;101094.25;5052264;28;1079;-21
2023/02/18 03:34:13;;;;;;;;;;;;;;;27.92;19.91;101088.00;5057245;28;952;-21
2023/02/18 03:36:38;;;;;;;;;;;;;;;28.34;19.58;101090.41;5072410;28;2710;-23
2023/02/18 03:39:06;;;;;;;;;;;;;;;28.51;19.21;101084.84;5047669;28;1898;-21
2023/02/18 03:41:31;;;;;;;;;;;;;;;27.84;19.96;101090.78;5057874;28;1136;-21
2023/02/18 03:44:00;;;;;;;;;;;;;;;27.40;20.32;101079.50;5057398;28;1127;-21
2023/02/18 03:46:26;;;;;;;;;;;;;;;27.19;20.37;101077.44;5075329;28;1115;-20
2023/02/18 03:48:52;;;;;;;;;;;;;;;27.76;20.35;101070.03;5075736;28;1035;-22
2023/02/18 03:51:18;;;;;;;;;;;;;;;28.13;19.88;101072.97;5074960;28;1135;-21
2023/02/18 03:53:43;;;;;;;;;;;;;;;27.78;20.10;101078.00;5064925;28;1448;-21
2023/02/18 03:56:09;;;;;;;;;;;;;;;27.34;20.50;101074.81;5071559;28;1131;-21
2023/02/18 03:58:34;;;;;;;;;;;;;;;27.06;21.02;101073.41;5077449;28;1910;-21
2023/02/18 04:00:59;;;;;;;;;;;;;;;27.51;20.60;101073.72;5079089;28;1139;-21
2023/02/18 04:03:24;;;;;;;;;;;;;;;27.70;19.92;101068.91;5079191;28;1088;-24
2023/02/18 04:05:50;;;;;;;;;;;;;;;28.17;19.75;101081.56;5071867;28;2381;-22
2023/02/18 04:08:15;;;;;;;;;;;;;;;27.31;20.75;101081.41;5078531;28;1099;-22
2023/02/18 04:10:40;;;;;;;;;;;;;;;27.55;20.18;101090.41;5079228;28;1063;-21
2023/02/18 04:13:06;;;;;;;;;;;;;;;27.81;20.15;101089.25;5078866;28;1150;-21
2023/02/18 04:15:31;;;;;;;;;;;;;;;27.34;20.46;101077.53;5078715;28;1099;-21
2023/02/18 04:17:56;;;;;;;;;;;;;;;27.67;20.09;101077.34;5079236;28;1971;-22
2023/02/18 04:20:22;;;;;;;;;;;;;;;28.29;19.39;101073.84;5075717;28;1115;-23
2023/02/18 04:22:47;;;;;;;;;;;;;;;28.71;19.01;101067.03;5068022;28;1044;-22
2023/02/18 04:25:12;;;;;;;;;;;;;;;28.76;18.99;101058.34;5078919;28;1071;-22
2023/02/18 04:27:38;;;;;;;;;;;;;;;26.99;19.32;101048.94;5078386;28;1060;-21
2023/02/18 04:30:04;;;;;;;;;;;;;;;27.63;20.10;101047.13;5078175;28;1221;-21
2023/02/18 04:32:29;;;;;;;;;;;;;;;27.34;20.33;101040.53;5077878;28;1039;-23
2023/02/18 04:34:54;;;;;;;;;;;;;;;27.43;20.33;101040.47;5078628;28;1860;-21
2023/02/18 04:37:20;;;;;;;;;;;;;;;28.23;19.69;101045.66;5078309;28;1898;-21
2023/02/18 04:39:45;;;;;;;;;;;;;;;28.25;19.55;101038.19;5078306;28;1438;-23
2023/02/18 04:42:10;;;;;;;;;;;;;;;27.54;20.11;101041.94;5078642;28;1154;-21
2023/02/18 04:44:36;;;;;;;;;;;;;;;27.20;20.72;101033.19;5077337;28;1146;-22
2023/02/18 04:47:02;;;;;;;;;;;;;;;25.22;18.20;101032.13;5078551;28;1062;-21
2023/02/18 04:49:27;;;;;;;;;;;;;;;24.25;18.19;101025.00;5078200;28;1114;-22
2023/02/18 04:51:52;;;;;;;;;;;;;;;24.32;18.20;101021.53;5077541;28;1254;-21
2023/02/18 04:54:17;;;;;;;;;;;;;;;26.03;18.31;101028.03;5072836;28;1215;-20
2023/02/18 04:56:43;;;;;;;;;;;;;;;27.38;17.66;101022.97;5058000;28;1099;-23
2023/02/18 04:59:08;;;;;;;;;;;;;;;26.88;18.50;101022.31;5072869;28;1965;-21
2023/02/18 05:01:33;;;;;;;;;;;;;;;26.33;17.51;101025.69;5077863;28;1282;-21
2023/02/18 05:03:59;;;;;;;;;;;;;;;26.81;17.58;101016.78;5078175;28;1059;-21
2023/02/18 05:06:24;;;;;;;;;;;;;;;26.98;18.27;101022.13;5077732;28;2622;-22
2023/02/18 05:08:49;;;;;;;;;;;;;;;27.93;17.30;101019.38;5077085;28;1016;-22
2023/02/18 05:11:14;;;;;;;;;;;;;;;27.04;18.37;101021.47;5078066;28;1003;-23
2023/02/18 05:13:40;;;;;;;;;;;;;;;26.91;18.83;101016.56;5059531;28;1179;-22
2023/02/18 05:16:05;;;;;;;;;;;;;;;26.61;18.89;101016.38;5077482;28;997;-21
2023/02/18 05:18:30;;;;;;;;;;;;;;;26.80;18.69;101020.50;5077227;28;1975;-25
2023/02/18 05:20:56;;;;;;;;;;;;;;;27.72;17.99;101020.06;5077484;28;991;-22
2023/02/18 05:23:21;;;;;;;;;;;;;;;28.32;17.47;101024.78;5077257;28;1460;-21
2023/02/18 05:25:46;;;;;;;;;;;;;;;27.73;18.09;101016.34;5077546;28;1035;-22
2023/02/18 05:28:12;;;;;;;;;;;;;;;27.51;18.46;101025.06;5077000;28;1048;-22
2023/02/18 05:30:37;;;;;;;;;;;;;;;27.65;18.30;101025.31;5077053;28;1097;-22
2023/02/18 05:33:02;;;;;;;;;;;;;;;28.17;18.39;101030.16;5073176;28;1039;-21
2023/02/18 05:35:28;;;;;;;;;;;;;;;27.36;20.42;101024.19;5076957;28;2681;-22
2023/02/18 05:37:53;;;;;;;;;;;;;;;27.00;20.34;101026.34;5077363;28;1987;-21
2023/02/18 05:40:18;;;;;;;;;;;;;;;27.03;20.69;101033.25;5076935;28;1131;-22
2023/02/18 05:42:44;;;;;;;;;;;;;;;27.17;20.66;101030.84;5076774;28;1047;-22
2023/02/18 05:45:09;;;;;;;;;;;;;;;27.90;19.33;101029.72;5076347;28;1123;-22
2023/02/18 05:47:34;;;;;;;;;;;;;;;27.82;19.76;101028.78;5077369;28;1112;-22
2023/02/18 05:49:59;;;;;;;;;;;;;;;28.16;19.68;101034.72;5076313;28;1111;-21
2023/02/18 05:52:25;;;;;;;;;;;;;;;27.98;19.61;101027.78;5076668;28;1032;-21
2023/02/18 05:54:50;;;;;;;;;;;;;;;27.62;19.62;101025.69;5077130;28;1067;-21
2023/02/18 05:57:15;;;;;;;;;;;;;;;27.83;19.77;101038.56;5076562;28;1914;-21
2023/02/18 05:59:41;;;;;;;;;;;;;;;28.39;19.55;101031.19;5076654;28;1059;-22
2023/02/18 06:02:06;;;;;;;;;;;;;;;27.74;19.21;101032.38;5076497;28;1171;-21
2023/02/18 06:04:31;;;;;;;;;;;;;;;27.43;19.79;101026.97;5076699;28;1250;-21
2023/02/18 06:06:57;;;;;;;;;;;;;;;27.35;20.54;101025.19;5074095;28;2659;-21
2023/02/18 06:09:22;;;;;;;;;;;;;;;28.09;19.25;101018.38;5076500;28;1226;-20
2023/02/18 06:11:47;;;;;;;;;;;;;;;27.17;20.39;101020.91;5076073;28;1015;-23
2023/02/18 06:14:12;;;;;;;;;;;;;;;27.91;19.36;101026.00;5063322;28;1039;-23
2023/02/18 06:16:38;;;;;;;;;;;;;;;27.45;20.06;101019.53;5076927;28;1067;-24
2023/02/18 06:19:03;;;;;;;;;;;;;;;27.45;20.04;101019.53;5076277;28;1961;-22
2023/02/18 06:21:28;;;;;;;;;;;;;;;27.71;20.24;101019.22;5075009;28;1139;-22
2023/02/18 06:23:54;;;;;;;;;;;;;;;28.28;19.37;101027.00;5076976;28;1023;-21
2023/02/18 06:26:19;;;;;;;;;;;;;;;28.41;19.48;101017.47;5076196;28;1182;-23
2023/02/18 06:28:44;;;;;;;;;;;;;;;27.88;19.53;101016.38;5076623;28;1019;-25
2023/02/18 06:31:10;;;;;;;;;;;;;;;27.37;19.94;101015.88;5076366;28;1024;-21
2023/02/18 06:33:35;;;;;;;;;;;;;;;27.31;19.62;101008.47;5075906;28;1070;-21
2023/02/18 06:36:01;;;;;;;;;;;;;;;27.23;20.57;101003.97;5075655;28;2546;-21
2023/02/18 06:38:27;;;;;;;;;;;;;;;27.64;20.19;101007.44;5076346;28;1961;-22
2023/02/18 06:40:52;;;;;;;;;;;;;;;27.95;19.79;100997.56;5076182;28;1229;-22
2023/02/18 06:43:18;;;;;;;;;;;;;;;28.55;19.05;101002.25;5075592;28;1059;-21
2023/02/18 06:45:43;;;;;;;;;;;;;;;27.63;19.64;101001.19;5075938;28;1067;-21
2023/02/18 06:48:08;;;;;;;;;;;;;;;27.39;20.16;100994.91;5076286;28;1008;-22
2023/02/18 06:50:34;;;;;;;;;;;;;;;27.91;19.35;101002.50;5075253;28;1134;-22
2023/02/18 06:52:59;;;;;;;;;;;;;;;28.01;19.53;101002.25;5076134;28;1060;-22
2023/02/18 06:55:24;;;;;;;;;;;;;;;27.47;20.11;101004.84;5075518;28;1001;-20
2023/02/18 06:57:50;;;;;;;;;;;;;;;27.41;19.58;101002.84;5074997;28;1977;-21
2023/02/18 07:00:15;;;;;;;;;;;;;;;27.26;20.25;101006.31;5075863;28;1141;-24
2023/02/18 07:02:40;;;;;;;;;;;;;;;27.41;21.02;101000.13;5076398;28;1099;-22
2023/02/18 07:05:06;;;;;;;;;;;;;;;27.88;19.68;101005.56;5071521;28;2197;-20
2023/02/18 07:07:31;;;;;;;;;;;;;;;28.37;19.37;101008.88;5068060;28;1031;-22
2023/02/18 07:09:56;;;;;;;;;;;;;;;28.45;18.82;101007.94;5075529;28;1067;-20
2023/02/18 07:12:22;;;;;;;;;;;;;;;27.60;19.62;101014.22;5075509;28;1134;-21
2023/02/18 07:14:47;;;;;;;;;;;;;;;27.51;19.83;101008.00;5075740;28;1037;-21
2023/02/18 07:17:12;;;;;;;;;;;;;;;28.00;19.54;101008.69;5075811;28;1047;-21
2023/02/18 07:19:38;;;;;;;;;;;;;;;27.59;19.89;101013.34;5075351;28;1902;-21
2023/02/18 07:22:03;;;;;;;;;;;;;;;27.31;20.33;101008.47;5075560;28;1024;-23
2023/02/18 07:24:28;;;;;;;;;;;;;;;27.83;19.86;101000.72;5075816;28;1058;-21
2023/02/18 07:26:54;;;;;;;;;;;;;;;28.77;18.96;101003.19;5076050;28;1067;-20
2023/02/18 07:29:19;;;;;;;;;;;;;;;28.98;18.42;100998.88;5076160;28;1138;-21
2023/02/18 07:31:44;;;;;;;;;;;;;;;27.60;19.83;101001.53;5075316;28;1048;-21
2023/02/18 07:34:09;;;;;;;;;;;;;;;27.43;20.10;100995.41;5078810;28;1083;-21
2023/02/18 07:36:35;;;;;;;;;;;;;;;27.43;20.36;100991.84;5078332;28;2520;-20
2023/02/18 07:39:00;;;;;;;;;;;;;;;26.85;21.12;100984.91;5079867;28;1910;-21
2023/02/18 07:41:25;;;;;;;;;;;;;;;26.81;21.17;100986.28;5079750;28;1070;-22
2023/02/18 07:43:51;;;;;;;;;;;;;;;27.17;20.58;100984.94;5079465;28;1040;-23
2023/02/18 07:46:16;;;;;;;;;;;;;;;27.24;20.18;100991.31;5078984;28;1084;-21
2023/02/18 07:48:41;;;;;;;;;;;;;;;27.85;19.78;100987.88;5079512;28;1007;-22
2023/02/18 07:51:07;;;;;;;;;;;;;;;27.93;19.58;100976.13;5079214;28;1244;-22
2023/02/18 07:53:32;;;;;;;;;;;;;;;27.53;19.49;100975.44;5079529;28;1051;-21
2023/02/18 07:55:59;;;;;;;;;;;;;;;27.28;20.29;100981.81;5078973;28;984;-21
2023/02/18 07:58:25;;;;;;;;;;;;;;;27.20;20.87;100981.88;5078299;28;1906;-23
2023/02/18 08:00:52;;;;;;;;;;;;;;;27.99;19.44;100977.28;5079239;28;1190;-22
2023/02/18 08:03:17;;;;;;;;;;;;;;;27.84;19.59;100979.94;5079134;28;1019;-21
2023/02/18 08:05:43;;;;;;;;;;;;;;;27.41;20.27;100975.81;5072362;28;2488;-21
2023/02/18 08:08:11;;;;;;;;;;;;;;;27.33;20.23;100965.06;5078674;28;1011;-21
2023/02/18 08:10:36;;;;;;;;;;;;;;;27.01;20.52;100967.75;5061043;28;1210;-20
2023/02/18 08:13:01;;;;;;;;;;;;;;;27.14;20.66;100965.38;5078988;28;1095;-21
2023/02/18 08:15:27;;;;;;;;;;;;;;;27.16;20.36;100959.78;5078821;28;1052;-20
2023/02/18 08:17:52;;;;;;;;;;;;;;;27.24;20.23;100954.31;5078885;28;1894;-21
2023/02/18 08:20:17;;;;;;;;;;;;;;;27.18;20.52;100955.06;5078597;28;1109;-21
2023/02/18 08:22:43;;;;;;;;;;;;;;;26.28;21.73;100956.06;5078557;28;1072;-20
2023/02/18 08:25:08;;;;;;;;;;;;;;;26.65;21.64;100958.34;5078680;28;980;-21
2023/02/18 08:27:33;;;;;;;;;;;;;;;26.97;20.98;100955.66;5078237;28;1016;-22
2023/02/18 08:29:58;;;;;;;;;;;;;;;27.18;20.73;100955.06;5078272;28;1109;-21
2023/02/18 08:32:27;;;;;;;;;;;;;;;27.10;20.90;100942.44;5078631;28;1150;-21
2023/02/18 08:34:53;;;;;;;;;;;;;;;26.87;21.61;100932.44;5077826;28;2383;-21
2023/02/18 08:37:18;;;;;;;;;;;;;;;26.55;21.63;100931.56;5078686;28;1898;-21
2023/02/18 08:39:43;;;;;;;;;;;;;;;26.89;21.23;100938.47;5078703;28;1076;-21
2023/02/18 08:42:08;;;;;;;;;;;;;;;27.19;20.73;100921.66;5078212;28;1107;-23
2023/02/18 08:44:34;;;;;;;;;;;;;;;27.32;20.32;100926.44;5077305;28;1059;-21
2023/02/18 08:46:59;;;;;;;;;;;;;;;27.23;20.46;100925.66;5077895;28;1071;-21
2023/02/18 08:49:24;;;;;;;;;;;;;;;26.31;21.80;100930.59;5077728;28;1193;-21
2023/02/18 08:54:21;;;;;;;;;;;;;;;27.29;20.82;100932.22;5097375;27;1348;-16
2023/02/18 08:57:49;;;;;;;;;;;;;;;26.98;21.19;100933.03;5095560;27;1414;-21
2023/02/18 09:00:14;;;;;;;;;;;;;;;27.63;20.31;100928.22;5081340;28;872;-20
2023/02/18 09:02:40;;;;;;;;;;;;;;;27.37;20.08;100920.50;5086300;28;1146;-21
2023/02/18 09:05:05;;;;;;;;;;;;;;;27.36;19.70;100921.53;5072740;28;1979;-21
2023/02/18 09:07:30;;;;;;;;;;;;;;;27.41;19.92;100916.41;5073336;28;1103;-20
2023/02/18 09:09:55;;;;;;;;;;;;;;;27.35;19.96;100925.22;5084491;28;1036;-20
2023/02/18 09:12:21;;;;;;;;;;;;;;;27.39;20.31;100923.88;5087491;28;1103;-20
2023/02/18 09:14:47;;;;;;;;;;;;;;;27.34;20.43;100910.06;5072937;28;1087;-20
2023/02/18 09:17:12;;;;;;;;;;;;;;;27.34;20.11;100905.47;5077442;28;1905;-21
2023/02/18 09:19:37;;;;;;;;;;;;;;;27.25;20.35;100903.88;5093074;28;1147;-20
2023/02/18 09:22:02;;;;;;;;;;;;;;;27.36;20.33;100894.50;5074411;28;1058;-19
2023/02/18 09:24:28;;;;;;;;;;;;;;;27.03;20.48;100887.47;5076524;28;935;-19
2023/02/18 09:26:54;;;;;;;;;;;;;;;26.86;20.26;100871.34;5080520;28;1078;-19
2023/02/18 09:29:19;;;;;;;;;;;;;;;27.08;20.67;100876.97;5092451;28;1450;-19
2023/02/18 09:31:44;;;;;;;;;;;;;;;26.38;21.25;100857.94;5076420;28;1219;-19
2023/02/18 09:34:10;;;;;;;;;;;;;;;26.85;20.91;100866.13;5072159;28;1520;-19
2023/02/18 09:36:35;;;;;;;;;;;;;;;27.20;20.67;100869.31;5090111;28;1974;-19
2023/02/18 09:39:00;;;;;;;;;;;;;;;27.41;20.39;100865.06;5083471;28;1079;-20
2023/02/18 09:41:28;;;;;;;;;;;;;;;27.30;20.63;100857.41;5074765;28;1112;-20
2023/02/18 09:43:54;;;;;;;;;;;;;;;26.96;21.05;100859.50;5074882;28;1132;-19
2023/02/18 09:46:38;;;;;;;;;;;;;;;26.40;21.94;100851.38;5054515;28;1227;-19
2023/02/18 09:49:06;;;;;;;;;;;;;;;27.12;20.69;100853.16;5074036;28;1378;-19
2023/02/18 09:51:31;;;;;;;;;;;;;;;27.28;20.40;100849.47;5074035;28;1218;-19
2023/02/18 09:53:56;;;;;;;;;;;;;;;27.32;20.39;100849.97;5085497;28;1105;-20
2023/02/18 09:56:25;;;;;;;;;;;;;;;27.63;20.56;100846.28;5058813;28;1894;-19
2023/02/18 09:58:51;;;;;;;;;;;;;;;27.09;20.60;100854.34;5053538;28;1553;-19
2023/02/18 10:01:32;;;;;;;;;;;;;;;27.25;20.60;100849.84;5058050;28;1043;-20
2023/02/18 10:03:58;;;;;;;;;;;;;;;27.39;20.42;100848.22;5044646;28;1144;-20
2023/02/18 10:06:30;;;;;;;;;;;;;;;27.38;20.54;100839.28;5033822;28;2393;-19
2023/02/18 10:08:56;;;;;;;;;;;;;;;26.88;21.03;100845.03;5040367;28;1124;-19
2023/02/18 10:11:21;;;;;;;;;;;;;;;26.97;21.37;100843.13;5051406;28;1004;-19
2023/02/18 10:13:46;;;;;;;;;;;;;;;27.14;20.71;100840.34;5048717;28;1025;-19
2023/02/18 10:16:14;;;;;;;;;;;;;;;27.22;20.58;100842.13;5044946;28;1910;-19
2023/02/18 10:18:44;;;;;;;;;;;;;;;27.39;21.04;100835.53;5030713;28;1128;-19
2023/02/18 10:21:10;;;;;;;;;;;;;;;27.82;19.99;100828.75;5025232;28;1105;-19
2023/02/18 10:23:37;;;;;;;;;;;;;;;27.59;20.12;100826.91;5035698;28;1021;-19
2023/02/18 10:26:04;;;;;;;;;;;;;;;27.47;20.07;100826.53;5027187;28;1115;-19
2023/02/18 10:28:29;;;;;;;;;;;;;;;27.39;20.13;100835.53;5042323;28;1144;-20
2023/02/18 10:30:56;;;;;;;;;;;;;;;27.73;20.19;100819.03;5020213;28;1145;-19
2023/02/18 10:33:32;;;;;;;;;;;;;;;27.34;20.44;100819.03;5020252;28;1093;-19
2023/02/18 10:36:06;;;;;;;;;;;;;;;27.38;20.17;100819.50;5029804;28;2539;-19
2023/02/18 10:38:38;;;;;;;;;;;;;;;27.24;20.43;100819.28;5040300;28;1124;-19
2023/02/18 10:41:06;;;;;;;;;;;;;;;27.35;20.49;100814.47;5055824;28;961;-19
2023/02/18 10:43:53;;;;;;;;;;;;;;;27.36;20.44;100816.19;5028203;28;1499;-19
2023/02/18 10:46:19;;;;;;;;;;;;;;;27.35;20.10;100818.03;5028347;28;1005;-19
2023/02/18 10:49:03;;;;;;;;;;;;;;;26.97;20.89;100809.88;5043805;28;1166;-19
2023/02/18 10:51:29;;;;;;;;;;;;;;;27.09;20.50;100804.94;5047596;28;1028;-19
2023/02/18 10:53:54;;;;;;;;;;;;;;;27.17;20.29;100802.16;5054195;28;1044;-19
2023/02/18 10:56:37;;;;;;;;;;;;;;;27.43;20.32;100805.44;5065237;28;1919;-19
2023/02/18 10:59:20;;;;;;;;;;;;;;;27.28;20.35;100800.88;5064305;28;1059;-19
2023/02/18 11:01:52;;;;;;;;;;;;;;;27.13;20.07;100792.72;5072596;28;1028;-19
2023/02/18 11:04:18;;;;;;;;;;;;;;;27.20;19.97;100800.94;5067731;28;1003;-19
2023/02/18 11:06:52;;;;;;;;;;;;;;;27.19;20.37;100797.44;5074919;28;2536;-19
2023/02/18 11:09:36;;;;;;;;;;;;;;;26.97;20.81;100790.97;5077598;28;1084;-19
2023/02/18 11:12:02;;;;;;;;;;;;;;;26.52;20.59;100697.22;5058243;28;1099;-19
2023/02/18 11:14:41;;;;;;;;;;;;;;;27.22;19.99;100785.41;5070850;28;1064;-19
2023/02/18 11:17:16;;;;;;;;;;;;;;;27.41;20.28;100783.22;5057549;28;1969;-18
2023/02/18 11:19:41;;;;;;;;;;;;;;;27.21;20.20;100792.66;5058740;28;1211;-19
2023/02/18 11:22:07;;;;;;;;;;;;;;;27.12;20.27;100786.50;5050158;28;1075;-19
2023/02/18 11:24:32;;;;;;;;;;;;;;;27.13;19.97;100781.94;5069892;28;1105;-19
2023/02/18 11:26:57;;;;;;;;;;;;;;;27.14;20.24;100795.25;5047910;28;1275;-19
2023/02/18 11:29:23;;;;;;;;;;;;;;;27.16;20.47;100784.25;5077120;28;1112;-20
2023/02/18 11:31:49;;;;;;;;;;;;;;;27.12;20.13;100788.38;5076760;28;1068;-19
2023/02/18 11:34:19;;;;;;;;;;;;;;;27.13;20.62;100790.03;5067198;28;1090;-19
2023/02/18 11:36:44;;;;;;;;;;;;;;;26.93;20.39;100781.56;5064897;28;2630;-19
2023/02/18 11:39:13;;;;;;;;;;;;;;;27.05;20.53;100782.00;5056645;28;1143;-19
2023/02/18 11:41:39;;;;;;;;;;;;;;;26.91;20.37;100776.34;5069779;28;1048;-19
2023/02/18 11:44:05;;;;;;;;;;;;;;;27.02;20.53;100767.88;5039189;28;1121;-19
2023/02/18 11:46:31;;;;;;;;;;;;;;;26.63;21.14;100766.09;5073774;28;1067;-19
2023/02/18 11:48:56;;;;;;;;;;;;;;;27.33;20.34;100765.19;5048135;28;830;-19
2023/02/18 11:51:32;;;;;;;;;;;;;;;26.87;20.68;100758.84;5038958;28;1188;-19
2023/02/18 11:54:00;;;;;;;;;;;;;;;27.06;20.67;100754.00;5056518;28;1135;-19
2023/02/18 11:56:26;;;;;;;;;;;;;;;27.13;20.53;100750.38;5068944;28;1968;-19
2023/02/18 11:58:51;;;;;;;;;;;;;;;26.64;20.65;100741.63;5056539;28;1108;-19
2023/02/18 12:01:35;;;;;;;;;;;;;;;26.94;20.43;100734.66;5051438;28;1223;-19
2023/02/18 12:04:20;;;;;;;;;;;;;;;27.06;20.79;100741.31;5056565;28;1186;-19
2023/02/18 12:06:53;;;;;;;;;;;;;;;26.99;20.11;100727.69;5063054;28;2630;-19
2023/02/18 12:09:18;;;;;;;;;;;;;;;27.00;20.45;100731.22;5065810;28;1436;-19
2023/02/18 12:11:45;;;;;;;;;;;;;;;26.99;20.64;100714.19;5075410;28;1158;-19
2023/02/18 12:14:16;;;;;;;;;;;;;;;27.00;20.63;100713.19;5076548;28;1091;-19
2023/02/18 12:16:47;;;;;;;;;;;;;;;26.62;20.83;100699.66;5053705;28;1898;-19
2023/02/18 12:19:15;;;;;;;;;;;;;;;26.75;20.97;100699.06;5067476;28;1118;-19
2023/02/18 12:22:01;;;;;;;;;;;;;;;26.83;20.81;100714.31;5070747;28;1191;-19
2023/02/18 12:24:45;;;;;;;;;;;;;;;26.98;20.82;100704.41;5050383;28;1488;-19
2023/02/18 12:27:23;;;;;;;;;;;;;;;27.07;20.64;100707.06;5065965;28;1156;-19
2023/02/18 12:29:55;;;;;;;;;;;;;;;26.57;21.22;100704.75;5054872;28;1088;-19
2023/02/18 12:32:20;;;;;;;;;;;;;;;26.85;20.73;100696.09;5052285;28;1207;-20
2023/02/18 12:34:59;;;;;;;;;;;;;;;26.61;21.00;100706.91;5058621;28;1792;-19
2023/02/18 12:37:27;;;;;;;;;;;;;;;26.59;21.08;100708.94;5059836;28;1909;-19
2023/02/18 12:40:05;;;;;;;;;;;;;;;26.81;21.44;100705.59;5062904;28;1158;-19
2023/02/18 12:42:30;;;;;;;;;;;;;;;26.92;21.02;100712.41;5054771;28;1258;-19
2023/02/18 12:45:14;;;;;;;;;;;;;;;26.96;20.87;100702.94;5064405;28;1304;-20
2023/02/18 12:47:45;;;;;;;;;;;;;;;26.85;21.10;100713.16;5072042;28;1410;-19
2023/02/18 12:50:34;;;;;;;;;;;;;;;26.64;21.37;100709.25;5062021;28;1036;-19
2023/02/18 12:53:14;;;;;;;;;;;;;;;26.68;21.37;100709.72;5055801;28;1398;-19